Time;durP1;ratioP1;P1;durP2;ratioP2;P2;SDS_P1;SDS_P2;PMS_P1;PMS_P2;Temp;Humidity;BMP_temperature;BMP_pressure;BME280_temperature;BME280_humidity;BME280_pressure;Samples;Min_cycle;Max_cycle;Signal;HPM_P1;HPM_P2
2021/11/16 00:00:44;;;;;;;;;;;;;;;14.72;70.54;102301.47;1049229;28;1877;-62
2021/11/16 00:01:38;;;;;;;;;;;;;;;14.71;70.20;102300.59;1052273;28;673;-63
2021/11/16 00:02:29;;;;;;;;;;;;;;;14.70;70.64;102298.00;1052138;28;1198;-62
2021/11/16 00:03:19;;;;;;;;;;;;;;;14.70;70.08;102292.63;1051762;28;652;-62
2021/11/16 00:04:09;;;;;;;;;;;;;;;14.70;69.92;102293.50;1048708;28;711;-61
2021/11/16 00:05:00;;;;;;;;;;;;;;;14.70;70.86;102296.19;1048363;28;677;-62
2021/11/16 00:05:50;;;;;;;;;;;;;;;14.69;70.53;102296.31;1048278;28;634;-63
2021/11/16 00:06:42;;;;;;;;;;;;;;;14.70;70.23;102293.50;1048372;28;798;-61
2021/11/16 00:07:33;;;;;;;;;;;;;;;14.70;70.09;102289.94;1049086;28;2103;-61
2021/11/16 00:08:24;;;;;;;;;;;;;;;14.70;71.16;102292.63;1047804;28;931;-61
2021/11/16 00:09:14;;;;;;;;;;;;;;;14.69;70.68;102296.31;1047491;28;668;-61
2021/11/16 00:10:05;;;;;;;;;;;;;;;14.68;70.73;102292.75;1047954;28;2016;-62
2021/11/16 00:10:55;;;;;;;;;;;;;;;14.67;70.34;102288.34;1048726;28;697;-61
2021/11/16 00:11:45;;;;;;;;;;;;;;;14.67;70.09;102288.34;1048827;28;598;-62
2021/11/16 00:12:36;;;;;;;;;;;;;;;14.67;70.71;102285.66;1048721;28;914;-62
2021/11/16 00:13:26;;;;;;;;;;;;;;;14.66;70.35;102278.56;1048792;28;683;-62
2021/11/16 00:14:17;;;;;;;;;;;;;;;14.67;70.77;102287.47;1048799;28;761;-62
2021/11/16 00:15:08;;;;;;;;;;;;;;;14.67;70.49;102288.34;1047670;28;1898;-60
2021/11/16 00:15:58;;;;;;;;;;;;;;;14.67;70.59;102280.28;1048026;28;606;-60
2021/11/16 00:16:49;;;;;;;;;;;;;;;14.67;70.63;102293.72;1048261;28;947;-60
2021/11/16 00:17:39;;;;;;;;;;;;;;;14.66;70.56;102286.59;1050148;28;2068;-59
2021/11/16 00:18:31;;;;;;;;;;;;;;;14.66;70.76;102283.94;1052431;28;770;-60
2021/11/16 00:19:21;;;;;;;;;;;;;;;14.66;71.14;102286.59;1051958;28;1910;-60
2021/11/16 00:20:13;;;;;;;;;;;;;;;14.65;71.12;102279.50;1052265;28;710;-61
2021/11/16 00:21:06;;;;;;;;;;;;;;;14.65;70.47;102279.50;1052187;28;770;-61
2021/11/16 00:21:57;;;;;;;;;;;;;;;14.64;70.89;102277.78;1051972;28;2271;-61
2021/11/16 00:22:47;;;;;;;;;;;;;;;14.65;70.70;102279.50;1052230;28;940;-61
2021/11/16 00:23:39;;;;;;;;;;;;;;;14.64;70.63;102277.78;1052522;28;712;-61
2021/11/16 00:24:37;;;;;;;;;;;;;;;14.65;71.20;102275.97;1052454;28;706;-61
2021/11/16 00:25:35;;;;;;;;;;;;;;;14.63;70.67;102275.19;1051334;28;1970;-61
2021/11/16 00:26:25;;;;;;;;;;;;;;;14.63;70.73;102278.75;1051523;28;2080;-61
2021/11/16 00:27:16;;;;;;;;;;;;;;;14.64;70.62;102276.91;1048809;28;891;-61
2021/11/16 00:28:06;;;;;;;;;;;;;;;14.64;70.97;102271.56;1048650;28;716;-61
2021/11/16 00:28:56;;;;;;;;;;;;;;;14.63;70.54;102272.50;1048636;28;953;-61
2021/11/16 00:29:47;;;;;;;;;;;;;;;14.62;70.49;102278.81;1049015;28;642;-61
2021/11/16 00:30:38;;;;;;;;;;;;;;;14.62;70.89;102271.63;1048629;28;696;-61
2021/11/16 00:31:31;;;;;;;;;;;;;;;14.62;70.94;102268.09;1049372;28;804;-61
2021/11/16 00:32:22;;;;;;;;;;;;;;;14.62;70.24;102270.78;1049948;28;753;-61
2021/11/16 00:33:12;;;;;;;;;;;;;;;14.61;70.33;102267.22;1048904;28;823;-60
2021/11/16 00:34:02;;;;;;;;;;;;;;;14.60;70.69;102273.53;1049264;28;910;-60
2021/11/16 00:34:53;;;;;;;;;;;;;;;14.59;70.62;102263.75;1049666;28;1893;-60
2021/11/16 00:35:43;;;;;;;;;;;;;;;14.61;70.96;102261.88;1050122;28;638;-60
2021/11/16 00:36:34;;;;;;;;;;;;;;;14.60;70.67;102262.81;1049603;28;786;-60
2021/11/16 00:37:27;;;;;;;;;;;;;;;14.61;70.61;102266.34;1049412;28;911;-60
2021/11/16 00:38:19;;;;;;;;;;;;;;;14.60;70.46;102265.50;1049706;28;908;-60
2021/11/16 00:39:11;;;;;;;;;;;;;;;14.59;70.77;102264.63;1048643;28;1881;-61
2021/11/16 00:40:01;;;;;;;;;;;;;;;14.59;70.21;102261.94;1048724;28;724;-60
2021/11/16 00:40:51;;;;;;;;;;;;;;;14.58;71.06;102268.28;1048779;28;650;-60
2021/11/16 00:41:43;;;;;;;;;;;;;;;14.59;70.55;102263.75;1048856;28;849;-61
2021/11/16 00:42:33;;;;;;;;;;;;;;;14.59;70.57;102263.75;1048712;28;1430;-62
2021/11/16 00:43:23;;;;;;;;;;;;;;;14.58;70.37;102265.59;1048911;28;709;-62
2021/11/16 00:44:14;;;;;;;;;;;;;;;14.58;70.56;102262.91;1044978;28;748;-62
2021/11/16 00:45:04;;;;;;;;;;;;;;;14.59;70.99;102263.75;1045740;28;830;-62
2021/11/16 00:45:56;;;;;;;;;;;;;;;14.57;70.46;102271.91;1049489;28;829;-62
2021/11/16 00:46:47;;;;;;;;;;;;;;;14.56;71.10;102264.81;1048965;28;726;-62
2021/11/16 00:47:37;;;;;;;;;;;;;;;14.58;70.18;102262.03;1050050;28;740;-62
2021/11/16 00:48:28;;;;;;;;;;;;;;;14.58;71.06;102259.34;1053488;28;701;-62
2021/11/16 00:49:18;;;;;;;;;;;;;;;14.57;70.86;102252.25;1052600;28;1324;-62
2021/11/16 00:50:08;;;;;;;;;;;;;;;14.57;70.48;102265.66;1052806;28;932;-62
2021/11/16 00:50:59;;;;;;;;;;;;;;;14.57;70.54;102266.53;1053106;28;768;-62
2021/11/16 00:51:49;;;;;;;;;;;;;;;14.57;70.42;102260.31;1052875;28;817;-62
2021/11/16 00:52:40;;;;;;;;;;;;;;;14.56;70.86;102259.44;1049423;28;669;-62
2021/11/16 00:53:30;;;;;;;;;;;;;;;14.55;70.50;102263.06;1049211;28;1801;-62
2021/11/16 00:54:21;;;;;;;;;;;;;;;14.56;70.46;102261.25;1052994;28;828;-64
2021/11/16 00:55:11;;;;;;;;;;;;;;;14.56;70.80;102254.06;1053310;28;1945;-63
2021/11/16 00:56:01;;;;;;;;;;;;;;;14.55;70.21;102263.06;1052872;28;787;-63
2021/11/16 00:56:52;;;;;;;;;;;;;;;14.55;71.20;102255.03;1053099;28;658;-63
2021/11/16 00:57:42;;;;;;;;;;;;;;;14.54;70.28;102260.47;1052628;28;1010;-63
2021/11/16 00:58:33;;;;;;;;;;;;;;;14.55;70.16;102256.84;1052445;28;926;-63
2021/11/16 00:59:23;;;;;;;;;;;;;;;14.54;71.10;102255.13;1052250;28;2124;-63
2021/11/16 01:00:14;;;;;;;;;;;;;;;14.56;70.38;102258.56;1049211;28;755;-63
2021/11/16 01:01:04;;;;;;;;;;;;;;;14.53;70.82;102253.38;1049805;28;2070;-62
2021/11/16 01:01:54;;;;;;;;;;;;;;;14.53;70.35;102254.25;1048597;28;783;-62
2021/11/16 01:02:45;;;;;;;;;;;;;;;14.54;70.44;102260.47;1048233;28;1135;-62
2021/11/16 01:03:36;;;;;;;;;;;;;;;14.53;70.69;102259.63;1048769;28;1960;-62
2021/11/16 01:04:27;;;;;;;;;;;;;;;14.53;70.80;102250.69;1052123;28;1950;-62
2021/11/16 01:05:18;;;;;;;;;;;;;;;14.54;70.97;102249.75;1049694;28;755;-62
2021/11/16 01:06:08;;;;;;;;;;;;;;;14.52;70.30;102259.69;1049402;28;732;-62
2021/11/16 01:07:00;;;;;;;;;;;;;;;14.52;70.90;102259.69;1049572;28;715;-62
2021/11/16 01:07:50;;;;;;;;;;;;;;;14.52;70.60;102251.66;1048664;28;716;-62
2021/11/16 01:08:40;;;;;;;;;;;;;;;14.52;70.66;102251.66;1050475;28;2203;-62
2021/11/16 01:09:31;;;;;;;;;;;;;;;14.52;70.33;102257.03;1053149;28;805;-62
2021/11/16 01:10:21;;;;;;;;;;;;;;;14.51;70.45;102256.16;1052423;28;1949;-62
2021/11/16 01:11:12;;;;;;;;;;;;;;;14.50;70.92;102250.91;1052362;28;1941;-62
2021/11/16 01:12:03;;;;;;;;;;;;;;;14.50;70.72;102249.09;1052640;28;840;-62
2021/11/16 01:12:53;;;;;;;;;;;;;;;14.50;70.58;102256.28;1048971;28;823;-61
2021/11/16 01:13:43;;;;;;;;;;;;;;;14.50;70.81;102256.28;1048868;28;670;-61
2021/11/16 01:14:34;;;;;;;;;;;;;;;14.49;70.85;102258.09;1044723;28;654;-61
2021/11/16 01:15:24;;;;;;;;;;;;;;;14.50;70.93;102250.91;1044909;28;763;-61
2021/11/16 01:16:15;;;;;;;;;;;;;;;14.49;70.49;102251.88;1048919;28;678;-61
2021/11/16 01:17:05;;;;;;;;;;;;;;;14.49;71.01;102251.88;1048640;28;728;-61
2021/11/16 01:17:56;;;;;;;;;;;;;;;14.48;70.68;102258.19;1049002;28;1131;-61
2021/11/16 01:18:46;;;;;;;;;;;;;;;14.50;70.48;102250.91;1049255;28;1611;-61
2021/11/16 01:19:37;;;;;;;;;;;;;;;14.49;70.94;102254.53;1053382;28;630;-61
2021/11/16 01:20:27;;;;;;;;;;;;;;;14.50;70.44;102250.91;1050446;28;2042;-61
2021/11/16 01:21:17;;;;;;;;;;;;;;;14.50;70.85;102248.22;1049269;28;784;-62
2021/11/16 01:22:08;;;;;;;;;;;;;;;14.49;70.70;102258.09;1048477;28;696;-62
2021/11/16 01:22:58;;;;;;;;;;;;;;;14.49;70.63;102255.41;1049827;28;702;-62
2021/11/16 01:23:49;;;;;;;;;;;;;;;14.49;70.98;102258.09;1049001;28;735;-62
2021/11/16 01:24:39;;;;;;;;;;;;;;;14.48;70.67;102259.03;1047788;28;654;-62
2021/11/16 01:25:30;;;;;;;;;;;;;;;14.48;70.84;102258.19;1050893;28;1868;-62
2021/11/16 01:26:20;;;;;;;;;;;;;;;14.45;70.90;102261.91;1053152;28;744;-62
2021/11/16 01:27:14;;;;;;;;;;;;;;;14.45;70.92;102255.66;1052829;28;725;-62
2021/11/16 01:28:08;;;;;;;;;;;;;;;14.45;70.48;102258.34;1052627;28;1868;-62
2021/11/16 01:29:00;;;;;;;;;;;;;;;14.47;70.65;102253.78;1052782;28;806;-62
2021/11/16 01:29:50;;;;;;;;;;;;;;;14.46;70.55;102246.69;1052870;28;868;-62
2021/11/16 01:30:43;;;;;;;;;;;;;;;14.46;70.45;102249.34;1052720;28;729;-62
2021/11/16 01:31:34;;;;;;;;;;;;;;;14.46;70.96;102250.22;1053698;28;944;-62
2021/11/16 01:32:33;;;;;;;;;;;;;;;14.46;70.82;102252.03;1052893;28;634;-62
2021/11/16 01:34:07;;;;;;;;;;;;;;;14.46;70.41;102249.34;1052330;28;689;-62
2021/11/16 01:34:37;;;;;;;;;;;;;;;14.45;71.11;102244.94;1050565;28;1696;-62
2021/11/16 01:35:28;;;;;;;;;;;;;;;14.45;70.62;102250.31;1050437;28;621;-62
2021/11/16 01:36:18;;;;;;;;;;;;;;;14.44;70.40;102243.22;1050571;28;705;-61
2021/11/16 01:37:08;;;;;;;;;;;;;;;14.45;70.94;102250.31;1050540;28;679;-60
2021/11/16 01:37:59;;;;;;;;;;;;;;;14.44;70.94;102248.59;1050444;28;856;-61
2021/11/16 01:38:51;;;;;;;;;;;;;;;14.43;70.63;102245.03;1050222;28;2016;-62
2021/11/16 01:39:41;;;;;;;;;;;;;;;14.44;70.35;102243.22;1049024;28;696;-60
2021/11/16 01:40:32;;;;;;;;;;;;;;;14.44;70.37;102249.44;1049349;28;610;-61
2021/11/16 01:41:22;;;;;;;;;;;;;;;14.43;71.07;102252.22;1049188;28;618;-61
2021/11/16 01:42:13;;;;;;;;;;;;;;;14.42;70.92;102248.66;1049243;28;1013;-62
2021/11/16 01:43:04;;;;;;;;;;;;;;;14.43;70.71;102252.22;1049477;28;859;-61
2021/11/16 01:43:54;;;;;;;;;;;;;;;14.42;70.74;102245.13;1048164;28;2013;-62
2021/11/16 01:44:45;;;;;;;;;;;;;;;14.41;70.55;102246.06;1048512;28;1979;-63
2021/11/16 01:45:35;;;;;;;;;;;;;;;14.42;70.42;102239.75;1049526;28;633;-62
2021/11/16 01:46:25;;;;;;;;;;;;;;;14.41;70.63;102244.25;1049082;28;1518;-62
2021/11/16 01:47:16;;;;;;;;;;;;;;;14.42;71.05;102247.81;1049881;28;742;-61
2021/11/16 01:48:07;;;;;;;;;;;;;;;14.41;70.96;102249.63;1049875;28;710;-63
2021/11/16 01:48:58;;;;;;;;;;;;;;;14.41;70.21;102244.25;1049304;28;1875;-61
2021/11/16 01:49:48;;;;;;;;;;;;;;;14.41;70.48;102241.56;1049827;28;759;-61
2021/11/16 01:50:39;;;;;;;;;;;;;;;14.42;70.83;102245.13;1049210;28;838;-62
2021/11/16 01:51:29;;;;;;;;;;;;;;;14.41;70.80;102243.38;1048862;28;696;-62
2021/11/16 01:52:19;;;;;;;;;;;;;;;14.41;70.92;102243.38;1049315;28;827;-62
2021/11/16 01:53:10;;;;;;;;;;;;;;;14.41;71.07;102240.72;1049218;28;747;-61
2021/11/16 01:54:03;;;;;;;;;;;;;;;14.40;70.36;102237.16;1049162;28;666;-61
2021/11/16 01:54:54;;;;;;;;;;;;;;;14.41;71.20;102238.03;1049270;28;1902;-61
2021/11/16 01:55:44;;;;;;;;;;;;;;;14.40;70.81;102233.59;1048545;28;606;-61
2021/11/16 01:56:35;;;;;;;;;;;;;;;14.40;70.50;102236.25;1045933;28;883;-61
2021/11/16 01:57:25;;;;;;;;;;;;;;;14.39;70.42;102238.09;1044621;28;1908;-61
2021/11/16 01:58:16;;;;;;;;;;;;;;;14.38;70.47;102222.94;1049833;28;665;-61
2021/11/16 01:59:06;;;;;;;;;;;;;;;14.39;71.15;102237.22;1049286;28;772;-61
2021/11/16 01:59:56;;;;;;;;;;;;;;;14.38;71.22;102224.75;1049222;28;602;-61
2021/11/16 02:00:47;;;;;;;;;;;;;;;14.38;70.52;102233.66;1049700;28;1807;-61
2021/11/16 02:01:37;;;;;;;;;;;;;;;14.38;70.56;102224.75;1049198;28;594;-61
2021/11/16 02:02:28;;;;;;;;;;;;;;;14.38;70.85;102222.06;1051654;28;2079;-61
2021/11/16 02:03:18;;;;;;;;;;;;;;;14.37;70.98;102228.38;1052713;28;915;-61
2021/11/16 02:04:08;;;;;;;;;;;;;;;14.37;70.98;102220.34;1052509;28;630;-61
2021/11/16 02:04:59;;;;;;;;;;;;;;;14.37;71.12;102220.34;1052596;28;742;-61
2021/11/16 02:05:50;;;;;;;;;;;;;;;14.37;70.41;102228.38;1052550;28;653;-61
2021/11/16 02:06:41;;;;;;;;;;;;;;;14.37;70.64;102225.72;1052672;28;732;-61
2021/11/16 02:07:31;;;;;;;;;;;;;;;14.36;70.64;102224.84;1052841;28;697;-62
2021/11/16 02:08:21;;;;;;;;;;;;;;;14.36;70.61;102222.16;1052547;28;693;-62
2021/11/16 02:09:12;;;;;;;;;;;;;;;14.37;70.54;102220.34;1049199;28;847;-62
2021/11/16 02:10:02;;;;;;;;;;;;;;;14.35;70.93;102215.06;1048276;28;634;-62
2021/11/16 02:10:53;;;;;;;;;;;;;;;14.35;70.78;102225.78;1048752;28;744;-62
2021/11/16 02:11:43;;;;;;;;;;;;;;;14.35;70.64;102223.13;1048607;28;1071;-61
2021/11/16 02:12:34;;;;;;;;;;;;;;;14.35;71.19;102227.63;1047810;28;685;-62
2021/11/16 02:13:24;;;;;;;;;;;;;;;14.35;71.03;102223.13;1049338;28;842;-62
2021/11/16 02:14:14;;;;;;;;;;;;;;;14.34;71.05;102215.16;1049012;28;626;-61
2021/11/16 02:15:05;;;;;;;;;;;;;;;14.35;70.56;102222.25;1050963;28;2041;-61
2021/11/16 02:15:55;;;;;;;;;;;;;;;14.34;70.47;102221.38;1052484;28;610;-61
2021/11/16 02:16:46;;;;;;;;;;;;;;;14.34;70.50;102218.69;1052512;28;657;-61
2021/11/16 02:17:36;;;;;;;;;;;;;;;14.34;70.67;102215.16;1052342;28;984;-61
2021/11/16 02:18:27;;;;;;;;;;;;;;;14.34;71.23;102218.69;1048351;28;1256;-62
2021/11/16 02:19:17;;;;;;;;;;;;;;;14.34;70.75;102221.38;1051340;28;1906;-62
2021/11/16 02:20:07;;;;;;;;;;;;;;;14.34;70.66;102224.06;1051122;28;2046;-62
2021/11/16 02:20:58;;;;;;;;;;;;;;;14.33;70.53;102222.34;1049240;28;1998;-61
2021/11/16 02:21:48;;;;;;;;;;;;;;;14.34;70.61;102220.53;1052621;28;1147;-60
2021/11/16 02:22:39;;;;;;;;;;;;;;;14.34;70.27;102221.38;1052417;28;622;-61
2021/11/16 02:23:29;;;;;;;;;;;;;;;14.34;71.31;102220.53;1052615;28;641;-61
2021/11/16 02:24:19;;;;;;;;;;;;;;;14.34;70.33;102213.34;1052397;28;706;-61
2021/11/16 02:25:10;;;;;;;;;;;;;;;14.33;70.59;102214.28;1051645;28;1934;-61
2021/11/16 02:26:00;;;;;;;;;;;;;;;14.34;71.15;102223.19;1049049;28;1972;-61
2021/11/16 02:26:51;;;;;;;;;;;;;;;14.32;70.42;102212.59;1050284;28;2021;-60
2021/11/16 02:27:41;;;;;;;;;;;;;;;14.32;71.05;102211.72;1048312;28;661;-60
2021/11/16 02:28:32;;;;;;;;;;;;;;;14.32;70.73;102212.59;1049004;28;2092;-61
2021/11/16 02:29:22;;;;;;;;;;;;;;;14.32;70.54;102212.59;1047676;28;833;-61
2021/11/16 02:30:13;;;;;;;;;;;;;;;14.32;71.18;102211.72;1048051;28;961;-62
2021/11/16 02:31:03;;;;;;;;;;;;;;;14.31;70.58;102210.00;1047834;28;804;-62
2021/11/16 02:31:54;;;;;;;;;;;;;;;14.31;70.86;102210.88;1047557;28;735;-62
2021/11/16 02:32:46;;;;;;;;;;;;;;;14.31;71.04;102210.88;1051417;28;1700;-61
2021/11/16 02:33:36;;;;;;;;;;;;;;;14.30;71.03;102203.78;1052156;28;1884;-61
2021/11/16 02:34:27;;;;;;;;;;;;;;;14.30;71.01;102201.09;1052437;28;936;-62
2021/11/16 02:35:17;;;;;;;;;;;;;;;14.31;71.03;102201.97;1052430;28;1947;-62
2021/11/16 02:36:07;;;;;;;;;;;;;;;14.31;71.33;102204.63;1052434;28;834;-60
2021/11/16 02:36:58;;;;;;;;;;;;;;;14.30;70.32;102208.28;1052512;28;807;-61
2021/11/16 02:37:48;;;;;;;;;;;;;;;14.30;70.29;102205.59;1051391;28;673;-61
2021/11/16 02:38:39;;;;;;;;;;;;;;;14.30;71.05;102208.28;1051771;28;1847;-61
2021/11/16 02:39:29;;;;;;;;;;;;;;;14.29;70.51;102196.69;1052417;28;774;-63
2021/11/16 02:40:20;;;;;;;;;;;;;;;14.29;70.64;102191.31;1052587;28;844;-63
2021/11/16 02:41:10;;;;;;;;;;;;;;;14.30;70.54;102201.09;1052535;28;902;-63
2021/11/16 02:42:01;;;;;;;;;;;;;;;14.30;70.40;102200.22;1049440;28;1732;-63
2021/11/16 02:42:51;;;;;;;;;;;;;;;14.29;70.63;102194.00;1048307;28;1730;-62
2021/11/16 02:43:41;;;;;;;;;;;;;;;14.30;70.24;102197.53;1050994;28;1822;-62
2021/11/16 02:44:32;;;;;;;;;;;;;;;14.28;70.43;102194.09;1047937;28;748;-63
2021/11/16 02:45:23;;;;;;;;;;;;;;;14.27;71.11;102193.22;1047805;28;724;-63
2021/11/16 02:46:13;;;;;;;;;;;;;;;14.28;71.15;102186.91;1048204;28;798;-63
2021/11/16 02:47:03;;;;;;;;;;;;;;;14.27;71.14;102190.53;1048353;28;863;-62
2021/11/16 02:47:54;;;;;;;;;;;;;;;14.28;71.30;102191.41;1049396;28;783;-63
2021/11/16 02:48:44;;;;;;;;;;;;;;;14.28;71.15;102191.41;1049170;28;2006;-62
2021/11/16 02:49:35;;;;;;;;;;;;;;;14.28;70.55;102194.94;1053131;28;2035;-63
2021/11/16 02:50:26;;;;;;;;;;;;;;;14.28;70.43;102189.59;1052855;28;717;-63
2021/11/16 02:51:16;;;;;;;;;;;;;;;14.27;71.15;102193.22;1052820;28;764;-64
2021/11/16 02:52:07;;;;;;;;;;;;;;;14.28;70.95;102194.09;1052634;28;745;-63
2021/11/16 02:52:57;;;;;;;;;;;;;;;14.27;71.24;102197.72;1052662;28;731;-63
2021/11/16 02:53:48;;;;;;;;;;;;;;;14.27;71.19;102192.34;1048316;28;1801;-63
2021/11/16 02:54:39;;;;;;;;;;;;;;;14.27;70.95;102195.03;1049068;28;704;-63
2021/11/16 02:55:30;;;;;;;;;;;;;;;14.27;70.93;102197.72;1051334;28;2071;-63
2021/11/16 02:56:20;;;;;;;;;;;;;;;14.27;70.46;102197.72;1052677;28;701;-63
2021/11/16 02:57:10;;;;;;;;;;;;;;;14.27;70.87;102192.34;1052202;28;815;-63
2021/11/16 02:58:01;;;;;;;;;;;;;;;14.27;70.83;102192.34;1051712;28;2158;-63
2021/11/16 02:58:51;;;;;;;;;;;;;;;14.27;70.72;102197.72;1052509;28;610;-63
2021/11/16 02:59:42;;;;;;;;;;;;;;;14.27;70.66;102195.03;1052602;28;818;-63
2021/11/16 03:00:32;;;;;;;;;;;;;;;14.24;71.28;102196.94;1052875;28;741;-63
2021/11/16 03:01:23;;;;;;;;;;;;;;;14.24;71.11;102202.31;1051945;28;800;-62
2021/11/16 03:02:13;;;;;;;;;;;;;;;14.25;70.94;102196.00;1052726;28;721;-62
2021/11/16 03:03:03;;;;;;;;;;;;;;;14.24;70.65;102194.25;1052484;28;731;-62
2021/11/16 03:03:54;;;;;;;;;;;;;;;14.25;70.39;102193.31;1052677;28;700;-62
2021/11/16 03:04:45;;;;;;;;;;;;;;;14.25;70.97;102196.00;1051936;28;615;-62
2021/11/16 03:05:36;;;;;;;;;;;;;;;14.24;70.62;102196.94;1052373;28;1872;-62
2021/11/16 03:06:27;;;;;;;;;;;;;;;14.24;70.68;102194.25;1052602;28;678;-62
2021/11/16 03:07:17;;;;;;;;;;;;;;;14.24;71.22;102196.94;1052666;28;689;-62
2021/11/16 03:08:08;;;;;;;;;;;;;;;14.24;70.60;102198.75;1052548;28;682;-62
2021/11/16 03:08:58;;;;;;;;;;;;;;;14.23;70.59;102192.53;1052755;28;744;-62
2021/11/16 03:09:49;;;;;;;;;;;;;;;14.23;70.36;102189.84;1052541;28;969;-62
2021/11/16 03:10:40;;;;;;;;;;;;;;;14.22;70.77;102196.16;1052786;28;759;-62
2021/11/16 03:11:30;;;;;;;;;;;;;;;14.23;71.26;102189.84;1049654;28;2045;-62
2021/11/16 03:12:21;;;;;;;;;;;;;;;14.21;70.61;102191.75;1049012;28;1961;-62
2021/11/16 03:13:11;;;;;;;;;;;;;;;14.22;71.12;102187.25;1049154;28;785;-62
2021/11/16 03:14:02;;;;;;;;;;;;;;;14.23;70.55;102189.00;1048855;28;908;-62
2021/11/16 03:14:52;;;;;;;;;;;;;;;14.21;71.24;102191.75;1049084;28;634;-62
2021/11/16 03:15:43;;;;;;;;;;;;;;;14.21;71.36;102191.75;1048793;28;768;-62
2021/11/16 03:16:33;;;;;;;;;;;;;;;14.22;70.45;102192.63;1048008;28;677;-61
2021/11/16 03:17:24;;;;;;;;;;;;;;;14.22;70.70;102196.16;1048245;28;984;-62
2021/11/16 03:18:15;;;;;;;;;;;;;;;14.21;70.82;102197.13;1051086;28;1957;-61
2021/11/16 03:19:05;;;;;;;;;;;;;;;14.21;71.28;102190.88;1047974;28;724;-62
2021/11/16 03:19:56;;;;;;;;;;;;;;;14.21;70.58;102199.81;1048387;28;717;-62
2021/11/16 03:20:46;;;;;;;;;;;;;;;14.20;70.81;102195.38;1048381;28;994;-62
2021/11/16 03:21:41;;;;;;;;;;;;;;;14.21;70.56;102189.06;1052375;28;1927;-62
2021/11/16 03:22:36;;;;;;;;;;;;;;;14.21;71.21;102194.44;1052490;28;866;-61
2021/11/16 03:23:27;;;;;;;;;;;;;;;14.20;71.19;102189.16;1049447;28;806;-61
2021/11/16 03:24:17;;;;;;;;;;;;;;;14.20;71.29;102192.72;1049098;28;1978;-63
2021/11/16 03:25:08;;;;;;;;;;;;;;;14.20;70.50;102189.16;1048708;28;1941;-62
2021/11/16 03:26:01;;;;;;;;;;;;;;;14.19;70.65;102185.63;1048942;28;793;-61
2021/11/16 03:26:52;;;;;;;;;;;;;;;14.20;70.63;102194.53;1048303;28;657;-61
2021/11/16 03:27:44;;;;;;;;;;;;;;;14.20;71.10;102191.84;1048954;28;766;-61
2021/11/16 03:28:36;;;;;;;;;;;;;;;14.18;70.91;102191.94;1049396;28;820;-62
2021/11/16 03:29:27;;;;;;;;;;;;;;;14.19;70.65;102188.31;1049461;28;667;-61
2021/11/16 03:30:17;;;;;;;;;;;;;;;14.19;71.02;102187.44;1048173;28;1815;-61
2021/11/16 03:31:19;;;;;;;;;;;;;;;14.19;70.66;102184.75;1049471;28;716;-61
2021/11/16 03:32:12;;;;;;;;;;;;;;;14.20;70.71;102191.84;1049427;28;1946;-61
2021/11/16 03:33:02;;;;;;;;;;;;;;;14.19;71.34;102188.31;1048760;28;696;-61
2021/11/16 03:33:52;;;;;;;;;;;;;;;14.19;71.30;102187.44;1048905;28;630;-61
2021/11/16 03:34:43;;;;;;;;;;;;;;;14.18;70.84;102191.06;1048926;28;854;-61
2021/11/16 03:35:35;;;;;;;;;;;;;;;14.18;71.35;102191.94;1049331;28;684;-61
2021/11/16 03:36:25;;;;;;;;;;;;;;;14.18;70.63;102189.25;1048835;28;626;-61
2021/11/16 03:37:16;;;;;;;;;;;;;;;14.19;70.94;102192.78;1048660;28;1859;-61
2021/11/16 03:38:06;;;;;;;;;;;;;;;14.17;71.29;102190.19;1048737;28;679;-61
2021/11/16 03:38:57;;;;;;;;;;;;;;;14.18;71.40;102191.06;1048775;28;863;-61
2021/11/16 03:39:47;;;;;;;;;;;;;;;14.17;70.90;102186.66;1048966;28;666;-61
2021/11/16 03:40:38;;;;;;;;;;;;;;;14.15;70.95;102189.44;1048752;28;1800;-61
2021/11/16 03:41:28;;;;;;;;;;;;;;;14.16;71.05;102184.94;1044542;28;657;-60
2021/11/16 03:42:18;;;;;;;;;;;;;;;14.15;71.35;102186.75;1044933;28;687;-60
2021/11/16 03:43:10;;;;;;;;;;;;;;;14.15;71.39;102186.75;1048870;28;852;-60
2021/11/16 03:44:00;;;;;;;;;;;;;;;14.17;71.15;102192.00;1047995;28;783;-60
2021/11/16 03:44:51;;;;;;;;;;;;;;;14.16;71.16;102184.94;1048171;28;701;-60
2021/11/16 03:45:41;;;;;;;;;;;;;;;14.15;71.39;102181.38;1048117;28;685;-60
2021/11/16 03:46:32;;;;;;;;;;;;;;;14.17;70.53;102187.53;1048666;28;1449;-60
2021/11/16 03:47:22;;;;;;;;;;;;;;;14.16;70.45;102185.78;1048323;28;1302;-60
2021/11/16 03:48:13;;;;;;;;;;;;;;;14.16;71.08;102184.94;1048872;28;794;-60
2021/11/16 03:49:03;;;;;;;;;;;;;;;14.17;70.72;102189.34;1048724;28;1921;-60
2021/11/16 03:49:56;;;;;;;;;;;;;;;14.15;70.70;102189.44;1048684;28;725;-60
2021/11/16 03:50:46;;;;;;;;;;;;;;;14.14;71.41;102190.41;1049459;28;713;-60
2021/11/16 03:51:36;;;;;;;;;;;;;;;14.15;71.05;102189.44;1048691;28;743;-60
2021/11/16 03:52:27;;;;;;;;;;;;;;;14.15;70.55;102184.06;1048866;28;760;-61
2021/11/16 03:53:17;;;;;;;;;;;;;;;14.15;71.28;102183.22;1048140;28;656;-60
2021/11/16 03:54:08;;;;;;;;;;;;;;;14.15;71.27;102189.44;1048711;28;1818;-61
2021/11/16 03:54:58;;;;;;;;;;;;;;;14.15;71.28;102184.06;1048723;28;722;-60
2021/11/16 03:55:49;;;;;;;;;;;;;;;14.15;70.79;102189.44;1048629;28;1370;-60
2021/11/16 03:56:39;;;;;;;;;;;;;;;14.15;71.30;102194.78;1049287;28;1381;-60
2021/11/16 03:57:30;;;;;;;;;;;;;;;14.15;71.44;102196.63;1043627;28;1576;-60
2021/11/16 03:58:20;;;;;;;;;;;;;;;14.15;70.88;102196.63;1047874;28;1654;-60
2021/11/16 03:59:11;;;;;;;;;;;;;;;14.15;71.39;102193.97;1048520;28;1476;-63
2021/11/16 04:00:01;;;;;;;;;;;;;;;14.14;71.15;102187.72;1050211;28;1390;-61
2021/11/16 04:00:54;;;;;;;;;;;;;;;14.14;71.38;102192.22;1048414;28;638;-61
2021/11/16 04:01:44;;;;;;;;;;;;;;;14.15;71.43;102200.16;1048198;28;754;-61
2021/11/16 04:02:35;;;;;;;;;;;;;;;14.14;71.14;102195.78;1048429;28;1374;-61
2021/11/16 04:03:25;;;;;;;;;;;;;;;14.14;70.84;102201.13;1048880;28;730;-61
2021/11/16 04:04:18;;;;;;;;;;;;;;;14.14;70.89;102200.28;1048632;28;1042;-60
2021/11/16 04:05:09;;;;;;;;;;;;;;;14.14;71.18;102192.22;1048601;28;756;-61
2021/11/16 04:06:00;;;;;;;;;;;;;;;14.14;71.09;102198.44;1048187;28;823;-62
2021/11/16 04:06:50;;;;;;;;;;;;;;;14.14;70.77;102202.94;1050953;28;1386;-64
2021/11/16 04:07:42;;;;;;;;;;;;;;;14.14;71.34;102202.94;1049344;28;1554;-64
2021/11/16 04:08:33;;;;;;;;;;;;;;;14.13;71.10;102199.41;1051089;28;1472;-64
2021/11/16 04:09:23;;;;;;;;;;;;;;;14.14;70.83;102198.44;1050378;28;1445;-64
2021/11/16 04:10:14;;;;;;;;;;;;;;;14.12;71.50;102195.00;1051124;28;1501;-64
2021/11/16 04:11:04;;;;;;;;;;;;;;;14.11;70.76;102198.63;1050484;28;1612;-64
2021/11/16 04:11:55;;;;;;;;;;;;;;;14.12;70.72;102203.03;1048442;28;1589;-65
2021/11/16 04:12:45;;;;;;;;;;;;;;;14.12;70.95;102200.34;1048559;28;1522;-64
2021/11/16 04:13:35;;;;;;;;;;;;;;;14.11;71.58;102195.94;1047757;28;1482;-64
2021/11/16 04:14:26;;;;;;;;;;;;;;;14.11;71.69;102192.41;1048559;28;1556;-62
2021/11/16 04:15:16;;;;;;;;;;;;;;;14.11;71.14;102203.97;1052131;28;1902;-64
2021/11/16 04:16:07;;;;;;;;;;;;;;;14.11;71.24;102203.13;1048476;28;1493;-63
2021/11/16 04:16:57;;;;;;;;;;;;;;;14.10;70.84;102202.25;1049128;28;1518;-63
2021/11/16 04:17:48;;;;;;;;;;;;;;;14.10;71.05;102199.56;1048158;28;1541;-63
2021/11/16 04:18:38;;;;;;;;;;;;;;;14.11;70.98;102200.44;1050928;28;1492;-63
2021/11/16 04:19:29;;;;;;;;;;;;;;;14.10;71.17;102204.94;1050390;28;1839;-62
2021/11/16 04:20:19;;;;;;;;;;;;;;;14.10;71.65;102201.38;1048165;28;1975;-62
2021/11/16 04:21:09;;;;;;;;;;;;;;;14.10;70.74;102201.38;1048669;28;766;-62
2021/11/16 04:22:00;;;;;;;;;;;;;;;14.11;71.28;102195.94;1048737;28;787;-63
2021/11/16 04:22:50;;;;;;;;;;;;;;;14.10;71.25;102196.91;1048516;28;1692;-64
2021/11/16 04:23:41;;;;;;;;;;;;;;;14.10;70.52;102204.94;1050980;28;1588;-63
2021/11/16 04:24:32;;;;;;;;;;;;;;;14.10;71.63;102196.91;1048475;28;1483;-64
2021/11/16 04:25:22;;;;;;;;;;;;;;;14.10;71.17;102196.03;1049087;28;1588;-63
2021/11/16 04:26:13;;;;;;;;;;;;;;;14.09;71.00;102195.16;1050601;28;1469;-62
2021/11/16 04:27:03;;;;;;;;;;;;;;;14.09;70.78;102197.84;1050435;28;1373;-63